Time;durP1;ratioP1;P1;durP2;ratioP2;P2;SDS_P1;SDS_P2;PMS_P1;PMS_P2;Temp;Humidity;BMP_temperature;BMP_pressure;BME280_temperature;BME280_humidity;BME280_pressure;Samples;Min_cycle;Max_cycle;Signal;HPM_P1;HPM_P2
2023/10/26 00:04:47;;;;;;;17.10;14.70;;;;;;;;;;12634678;23;20078;-69
2023/10/26 00:09:44;;;;;;;19.23;14.70;;;;;;;;;;12636725;23;20020;-69
2023/10/26 00:14:40;;;;;;;19.75;15.52;;;;;;;;;;12639329;23;20039;-69
2023/10/26 00:19:37;;;;;;;16.70;14.93;;;;;;;;;;12633251;23;20112;-69
2023/10/26 00:24:33;;;;;;;15.75;14.25;;;;;;;;;;12639156;23;20020;-68
2023/10/26 00:29:30;;;;;;;18.30;15.30;;;;;;;;;;12638863;23;20024;-69
2023/10/26 00:34:26;;;;;;;16.25;14.38;;;;;;;;;;12638623;23;20024;-71
2023/10/26 00:39:22;;;;;;;17.10;14.30;;;;;;;;;;12638939;23;20332;-70
2023/10/26 00:44:22;;;;;;;17.15;14.63;;;;;;;;;;12635457;23;20020;-70
2023/10/26 00:49:20;;;;;;;20.95;14.95;;;;;;;;;;12637213;23;20358;-69
2023/10/26 00:54:20;;;;;;;15.10;13.60;;;;;;;;;;12635909;23;20029;-69
2023/10/26 00:59:17;;;;;;;25.75;15.77;;;;;;;;;;12638637;23;20063;-69
2023/10/26 01:04:16;;;;;;;18.38;14.40;;;;;;;;;;12638180;23;20651;-69
2023/10/26 01:09:15;;;;;;;18.60;16.63;;;;;;;;;;12637233;23;20050;-69
2023/10/26 01:14:13;;;;;;;18.70;16.30;;;;;;;;;;12637278;23;20367;-69
2023/10/26 01:19:09;;;;;;;18.40;16.30;;;;;;;;;;12638384;23;20470;-68
2023/10/26 01:24:06;;;;;;;17.88;14.90;;;;;;;;;;12633170;23;20028;-69
2023/10/26 01:29:03;;;;;;;18.13;16.30;;;;;;;;;;12639475;23;20031;-68
2023/10/26 01:33:59;;;;;;;20.70;16.17;;;;;;;;;;12640022;23;20067;-68
2023/10/26 01:38:55;;;;;;;18.23;15.82;;;;;;;;;;12639718;23;20036;-69
2023/10/26 01:43:52;;;;;;;18.67;16.73;;;;;;;;;;12638205;23;20059;-69
2023/10/26 01:48:48;;;;;;;20.15;15.48;;;;;;;;;;12637970;23;20043;-67
2023/10/26 01:53:47;;;;;;;20.20;16.70;;;;;;;;;;12637826;23;20029;-69
2023/10/26 01:58:45;;;;;;;18.77;16.73;;;;;;;;;;12636786;23;20024;-69
2023/10/26 02:03:42;;;;;;;21.17;16.23;;;;;;;;;;12639132;23;20029;-69
2023/10/26 02:08:38;;;;;;;18.45;16.48;;;;;;;;;;12638196;23;20028;-68
2023/10/26 02:13:35;;;;;;;17.17;15.35;;;;;;;;;;12637669;23;20028;-67
2023/10/26 02:18:31;;;;;;;18.88;16.98;;;;;;;;;;12637596;23;20025;-67
2023/10/26 02:23:28;;;;;;;18.73;16.27;;;;;;;;;;12636670;23;20115;-68
2023/10/26 02:28:25;;;;;;;20.85;16.40;;;;;;;;;;12630440;23;20127;-68
2023/10/26 02:33:21;;;;;;;21.05;15.73;;;;;;;;;;12636478;23;20028;-68
2023/10/26 02:38:18;;;;;;;19.65;17.58;;;;;;;;;;12636269;23;20083;-67
2023/10/26 02:43:14;;;;;;;20.92;18.05;;;;;;;;;;12636680;23;20032;-68
2023/10/26 02:48:10;;;;;;;19.83;17.73;;;;;;;;;;12636260;23;20024;-68
2023/10/26 02:53:07;;;;;;;20.15;17.70;;;;;;;;;;12635823;23;20024;-68
2023/10/26 02:58:03;;;;;;;22.50;18.98;;;;;;;;;;12635797;23;20021;-69
2023/10/26 03:02:59;;;;;;;21.30;18.52;;;;;;;;;;12635973;23;20028;-69
2023/10/26 03:07:56;;;;;;;19.98;17.95;;;;;;;;;;12635685;23;20103;-68
2023/10/26 03:12:52;;;;;;;21.73;17.55;;;;;;;;;;12635406;23;20397;-68
2023/10/26 03:17:48;;;;;;;22.77;18.00;;;;;;;;;;12635514;23;20056;-68
2023/10/26 03:22:45;;;;;;;21.45;19.13;;;;;;;;;;12635826;23;20024;-68
2023/10/26 03:27:41;;;;;;;20.98;18.73;;;;;;;;;;12630199;23;20079;-68
2023/10/26 03:32:38;;;;;;;20.42;18.30;;;;;;;;;;12629485;23;20024;-68
2023/10/26 03:37:36;;;;;;;21.15;18.90;;;;;;;;;;12635920;23;20074;-69
2023/10/26 03:42:32;;;;;;;20.15;18.05;;;;;;;;;;12634312;23;20501;-69
2023/10/26 03:47:29;;;;;;;22.05;19.73;;;;;;;;;;12634236;23;20035;-70
2023/10/26 03:52:25;;;;;;;25.73;20.35;;;;;;;;;;12634525;23;20040;-70
2023/10/26 03:57:21;;;;;;;20.88;18.75;;;;;;;;;;12632934;23;20035;-69
2023/10/26 04:02:18;;;;;;;22.42;19.90;;;;;;;;;;12634647;23;20028;-69
2023/10/26 04:07:14;;;;;;;22.52;20.27;;;;;;;;;;12634445;23;20031;-69
2023/10/26 04:12:11;;;;;;;22.98;20.63;;;;;;;;;;12633845;23;20024;-70
2023/10/26 04:17:07;;;;;;;25.92;22.40;;;;;;;;;;12631750;23;20395;-68
2023/10/26 04:22:05;;;;;;;26.10;22.17;;;;;;;;;;12634417;23;20039;-68
2023/10/26 04:27:01;;;;;;;24.83;20.58;;;;;;;;;;12626200;23;20029;-70
2023/10/26 04:31:58;;;;;;;23.30;20.80;;;;;;;;;;12627655;23;20063;-70
2023/10/26 04:36:57;;;;;;;26.48;23.02;;;;;;;;;;12632403;23;20028;-69
2023/10/26 04:41:53;;;;;;;25.90;22.45;;;;;;;;;;12632090;23;20021;-69
2023/10/26 04:46:50;;;;;;;27.77;24.55;;;;;;;;;;12631285;23;20025;-70
2023/10/26 04:51:48;;;;;;;26.70;23.10;;;;;;;;;;12632397;23;20099;-71
2023/10/26 04:56:44;;;;;;;24.88;22.48;;;;;;;;;;12633094;23;20020;-70
2023/10/26 05:01:41;;;;;;;27.80;24.65;;;;;;;;;;12635255;23;20036;-70
2023/10/26 05:06:40;;;;;;;28.38;25.50;;;;;;;;;;12637684;23;20091;-70
2023/10/26 05:11:39;;;;;;;30.48;27.17;;;;;;;;;;12636894;23;20034;-70
2023/10/26 05:16:36;;;;;;;29.45;26.25;;;;;;;;;;12637538;23;20020;-70
2023/10/26 05:21:33;;;;;;;32.00;25.92;;;;;;;;;;12637964;23;20058;-71
2023/10/26 05:26:30;;;;;;;31.73;26.63;;;;;;;;;;12632818;23;20462;-71
2023/10/26 05:31:26;;;;;;;30.23;25.55;;;;;;;;;;12641317;23;20383;-70
2023/10/26 05:36:23;;;;;;;33.13;28.58;;;;;;;;;;12636784;23;20025;-71
2023/10/26 05:41:20;;;;;;;37.45;26.35;;;;;;;;;;12637259;23;20086;-71
2023/10/26 05:58:22;;;;;;;33.60;26.02;;;;;;;;;;12638378;22;20025;-73
2023/10/26 06:03:18;;;;;;;29.77;26.55;;;;;;;;;;12636854;23;20035;-72
2023/10/26 06:09:02;;;;;;;;;;;;;;;;;;;;;
2023/10/26 06:14:44;;;;;;;31.10;25.77;;;;;;;;;;12560441;23;20028;-73
2023/10/26 06:20:18;;;;;;;29.85;24.95;;;;;;;;;;12622651;23;20047;-73
2023/10/26 06:25:15;;;;;;;29.70;26.05;;;;;;;;;;12631488;23;20320;-72
2023/10/26 06:30:11;;;;;;;32.40;25.13;;;;;;;;;;12637463;23;20059;-71
2023/10/26 06:35:08;;;;;;;26.92;23.55;;;;;;;;;;12635065;23;20092;-71
2023/10/26 06:40:06;;;;;;;27.15;23.02;;;;;;;;;;12637811;23;20020;-72
2023/10/26 06:45:26;;;;;;;29.80;25.10;;;;;;;;;;12634628;22;20028;-73
2023/10/26 07:03:14;;;;;;;31.13;25.08;;;;;;;;;;12476675;23;20009;-73
2023/10/26 07:13:43;;;;;;;31.17;24.13;;;;;;;;;;12634661;22;20029;-73
2023/10/26 07:18:39;;;;;;;30.73;24.48;;;;;;;;;;12635639;22;20642;-74
2023/10/26 07:23:35;;;;;;;32.70;23.65;;;;;;;;;;12633093;23;20048;-73
2023/10/26 07:28:32;;;;;;;30.20;23.33;;;;;;;;;;12596971;22;20025;-73
2023/10/26 07:33:28;;;;;;;34.47;23.42;;;;;;;;;;12634330;23;20016;-73
2023/10/26 07:50:51;;;;;;;27.85;22.05;;;;;;;;;;12382234;23;20021;-73
2023/10/26 08:01:10;;;;;;;22.05;19.83;;;;;;;;;;12633942;22;20122;-73
2023/10/26 08:06:47;;;;;;;;;;;;;;;;;;;;;
2023/10/26 08:51:13;;;;;;;20.13;18.10;;;;;;;;;;12494904;23;20009;-72
2023/10/26 09:20:44;;;;;;;;;;;;;;;;;;;;;
2023/10/26 09:26:01;;;;;;;11.77;10.85;;;;;;;;;;12681697;23;20020;-75
2023/10/26 09:31:02;;;;;;;13.55;12.10;;;;;;;;;;12672711;22;20032;-74
2023/10/26 09:36:09;;;;;;;14.00;12.55;;;;;;;;;;12722276;22;20044;-74
2023/10/26 09:41:11;;;;;;;13.85;12.45;;;;;;;;;;12698059;22;20489;-75
2023/10/26 09:46:10;;;;;;;12.80;11.60;;;;;;;;;;12698176;22;20020;-74
2023/10/26 09:51:07;;;;;;;13.18;11.50;;;;;;;;;;12696163;22;20036;-74
2023/10/26 10:01:47;;;;;;;;;;;;;;;;;;;;;
2023/10/26 10:07:20;;;;;;;9.73;8.93;;;;;;;;;;12643213;23;20558;-73
2023/10/26 10:19:16;;;;;;;14.82;9.20;;;;;;;;;;12391173;23;20041;-74
2023/10/26 10:25:12;;;;;;;10.13;9.30;;;;;;;;;;12274517;23;20474;-74
2023/10/26 10:36:58;;;;;;;9.57;8.63;;;;;;;;;;12505555;22;20016;-74
2023/10/26 10:41:54;;;;;;;9.95;9.13;;;;;;;;;;12633402;23;20024;-72
2023/10/26 10:47:06;;;;;;;;;;;;;;;;;;;;;
2023/10/26 11:10:30;;;;;;;11.07;8.27;;;;;;;;;;12636836;22;20024;-74
2023/10/26 11:16:08;;;;;;;8.95;8.20;;;;;;;;;;12567875;22;20496;-72
2023/10/26 11:21:14;;;;;;;9.38;8.55;;;;;;;;;;12624626;23;20051;-72
2023/10/26 11:31:54;;;;;;;9.52;8.82;;;;;;;;;;12632152;22;20096;-72
2023/10/26 11:42:19;;;;;;;8.73;7.75;;;;;;;;;;12678553;22;20048;-73
2023/10/26 11:47:15;;;;;;;7.60;6.90;;;;;;;;;;12747298;22;20058;-73
2023/10/26 11:52:12;;;;;;;8.52;7.57;;;;;;;;;;12755185;22;20084;-72
2023/10/26 11:57:09;;;;;;;9.27;7.50;;;;;;;;;;12728886;22;20070;-72
2023/10/26 12:02:05;;;;;;;8.25;7.45;;;;;;;;;;12757591;22;20027;-72
2023/10/26 12:12:48;;;;;;;8.38;7.68;;;;;;;;;;12511548;23;20112;-72
2023/10/26 12:18:03;;;;;;;7.07;6.57;;;;;;;;;;12474121;23;20363;-71
2023/10/26 12:23:00;;;;;;;7.85;7.20;;;;;;;;;;12514524;23;20506;-71
2023/10/26 12:27:58;;;;;;;10.65;8.00;;;;;;;;;;12518175;23;20032;-71
2023/10/26 12:33:15;;;;;;;7.72;7.03;;;;;;;;;;12521831;23;20071;-71
2023/10/26 12:38:11;;;;;;;8.20;7.60;;;;;;;;;;12514042;23;20057;-71
2023/10/26 12:43:07;;;;;;;7.57;6.95;;;;;;;;;;12517533;23;20419;-72
2023/10/26 12:48:04;;;;;;;7.78;7.07;;;;;;;;;;12514276;23;20671;-72
2023/10/26 12:53:00;;;;;;;7.65;6.95;;;;;;;;;;12511722;23;20021;-72
2023/10/26 12:57:57;;;;;;;7.13;6.53;;;;;;;;;;12509879;23;20105;-73
2023/10/26 13:02:55;;;;;;;7.15;6.55;;;;;;;;;;12518352;23;20081;-73
2023/10/26 13:07:52;;;;;;;6.80;6.18;;;;;;;;;;12515559;23;20065;-71
2023/10/26 13:12:48;;;;;;;6.85;6.35;;;;;;;;;;12514967;23;20022;-71
2023/10/26 13:24:19;;;;;;;6.75;6.15;;;;;;;;;;12387772;23;20017;-71
2023/10/26 13:29:19;;;;;;;7.45;6.70;;;;;;;;;;12621651;22;20044;-71
2023/10/26 13:35:24;;;;;;;9.68;7.40;;;;;;;;;;12633121;23;20017;-73
2023/10/26 13:40:13;;;;;;;7.35;6.75;;;;;;;;;;12572948;23;20355;-72
2023/10/26 13:45:09;;;;;;;7.00;6.50;;;;;;;;;;12576852;23;20024;-73
2023/10/26 13:50:06;;;;;;;7.25;6.75;;;;;;;;;;12576300;23;20021;-72
2023/10/26 14:10:52;;;;;;;6.83;6.33;;;;;;;;;;12636485;22;20494;-73
2023/10/26 14:15:48;;;;;;;7.50;6.15;;;;;;;;;;12636461;22;20032;-74
2023/10/26 14:20:45;;;;;;;7.70;6.07;;;;;;;;;;12637903;23;20017;-73
2023/10/26 14:25:42;;;;;;;7.63;6.75;;;;;;;;;;12637445;23;20028;-72
2023/10/26 14:30:38;;;;;;;7.15;6.55;;;;;;;;;;12639032;23;20020;-72
2023/10/26 14:35:34;;;;;;;6.78;6.18;;;;;;;;;;12638878;23;20099;-71
2023/10/26 14:40:31;;;;;;;7.47;6.25;;;;;;;;;;12638133;23;20386;-73
2023/10/26 14:45:28;;;;;;;6.85;6.30;;;;;;;;;;12638318;23;20029;-72
2023/10/26 14:50:24;;;;;;;7.00;6.40;;;;;;;;;;12637051;23;20096;-73
2023/10/26 14:55:21;;;;;;;6.60;6.10;;;;;;;;;;12610987;23;20048;-73
2023/10/26 15:00:17;;;;;;;7.10;6.13;;;;;;;;;;12631018;23;20020;-73
2023/10/26 15:05:14;;;;;;;7.60;6.90;;;;;;;;;;12635630;23;20024;-72
2023/10/26 15:10:11;;;;;;;7.00;6.50;;;;;;;;;;12633098;23;20024;-73
2023/10/26 15:15:22;;;;;;;7.22;6.72;;;;;;;;;;12632311;23;20083;-73
2023/10/26 15:20:18;;;;;;;7.70;7.20;;;;;;;;;;12633859;23;20023;-73
2023/10/26 15:36:33;;;;;;;7.68;7.13;;;;;;;;;;12431177;23;20026;-73
2023/10/26 15:41:32;;;;;;;7.53;7.00;;;;;;;;;;12677538;23;20340;-73
2023/10/26 15:46:29;;;;;;;8.10;7.40;;;;;;;;;;12696990;22;20028;-74
2023/10/26 15:51:25;;;;;;;13.20;6.95;;;;;;;;;;12698298;23;20407;-73
2023/10/26 16:02:19;;;;;;;;;;;;;;;;;;;;;
2023/10/26 16:43:21;;;;;;;8.50;7.50;;;;;;;;;;12619508;22;20022;-74
2023/10/26 16:59:29;;;;;;;10.57;8.07;;;;;;;;;;12606993;22;20024;-74
2023/10/26 17:04:25;;;;;;;8.00;7.40;;;;;;;;;;12639309;23;20410;-73
2023/10/26 17:22:14;;;;;;;8.15;7.55;;;;;;;;;;12482742;23;20017;-73
2023/10/26 17:33:43;;;;;;;8.35;7.75;;;;;;;;;;12634872;23;20048;-73
2023/10/26 17:38:39;;;;;;;9.82;8.00;;;;;;;;;;12700454;22;20028;-73
2023/10/26 17:43:36;;;;;;;8.88;8.18;;;;;;;;;;12700245;23;20031;-73
2023/10/26 17:48:32;;;;;;;8.18;7.57;;;;;;;;;;12673651;23;20146;-73
2023/10/26 17:53:29;;;;;;;8.23;7.63;;;;;;;;;;12700350;23;20020;-73
2023/10/26 18:10:48;;;;;;;;;;;;;;;;;;;;;
2023/10/26 18:15:54;;;;;;;15.60;7.93;;;;;;;;;;12755823;22;20058;-73
2023/10/26 18:20:54;;;;;;;7.35;6.75;;;;;;;;;;12762223;22;20024;-73
2023/10/26 18:26:42;;;;;;;;;;;;;;;;;;;;;
2023/10/26 18:31:59;;;;;;;9.38;7.00;;;;;;;;;;12634076;23;20537;-73
2023/10/26 18:36:56;;;;;;;10.55;7.65;;;;;;;;;;12634892;23;20114;-73
2023/10/26 18:41:52;;;;;;;8.48;7.72;;;;;;;;;;12634112;23;20070;-73
2023/10/26 18:58:11;;;;;;;7.53;7.03;;;;;;;;;;12584286;23;1048380;-73
2023/10/26 19:03:09;;;;;;;10.30;7.45;;;;;;;;;;12664442;23;20031;-73
2023/10/26 19:08:07;;;;;;;7.90;7.30;;;;;;;;;;12692109;23;20522;-73
2023/10/26 19:13:04;;;;;;;8.70;8.00;;;;;;;;;;12692130;23;20094;-73
2023/10/26 19:18:05;;;;;;;7.70;7.20;;;;;;;;;;12695264;23;20480;-73
2023/10/26 19:23:02;;;;;;;7.82;7.32;;;;;;;;;;12695914;23;20028;-73
2023/10/26 19:27:59;;;;;;;7.40;6.90;;;;;;;;;;12669345;23;20082;-73
2023/10/26 19:32:56;;;;;;;7.60;6.97;;;;;;;;;;12691036;23;20046;-73
2023/10/26 19:37:54;;;;;;;7.80;6.97;;;;;;;;;;12696652;23;20028;-73
2023/10/26 19:42:50;;;;;;;7.78;7.20;;;;;;;;;;12694528;23;20020;-73
2023/10/26 19:47:46;;;;;;;7.68;7.07;;;;;;;;;;12693642;23;20054;-73
2023/10/26 19:52:43;;;;;;;9.10;7.80;;;;;;;;;;12696759;23;20017;-71
2023/10/26 19:57:39;;;;;;;7.32;6.82;;;;;;;;;;12686834;23;20095;-72
2023/10/26 20:02:36;;;;;;;8.20;7.60;;;;;;;;;;12693894;23;20020;-68
2023/10/26 20:07:32;;;;;;;7.32;6.82;;;;;;;;;;12692821;23;20139;-68
2023/10/26 20:12:28;;;;;;;7.22;6.53;;;;;;;;;;12688530;23;20082;-67
2023/10/26 20:17:25;;;;;;;7.13;6.63;;;;;;;;;;12696327;23;20021;-68
2023/10/26 20:22:21;;;;;;;7.18;6.68;;;;;;;;;;12696505;23;20104;-68
2023/10/26 20:27:17;;;;;;;7.80;7.20;;;;;;;;;;12698471;23;20377;-68
2023/10/26 20:32:14;;;;;;;7.43;6.72;;;;;;;;;;12696206;23;20028;-67
2023/10/26 20:37:10;;;;;;;7.15;6.65;;;;;;;;;;12700287;23;20078;-67
2023/10/26 20:42:07;;;;;;;7.60;7.10;;;;;;;;;;12695458;23;20024;-67
2023/10/26 20:47:03;;;;;;;6.93;6.40;;;;;;;;;;12696820;23;20031;-68
2023/10/26 20:52:00;;;;;;;7.07;6.57;;;;;;;;;;12698295;23;20031;-68
2023/10/26 20:56:56;;;;;;;7.30;6.60;;;;;;;;;;12697374;23;20024;-68
2023/10/26 21:01:52;;;;;;;7.55;6.90;;;;;;;;;;12699446;23;20028;-68
2023/10/26 21:06:49;;;;;;;8.68;6.30;;;;;;;;;;12700060;23;20028;-68
2023/10/26 21:11:45;;;;;;;7.35;6.78;;;;;;;;;;12699316;23;20028;-68
2023/10/26 21:16:42;;;;;;;7.15;6.65;;;;;;;;;;12698375;23;20343;-67
2023/10/26 21:21:38;;;;;;;7.10;6.50;;;;;;;;;;12699222;23;20024;-68
2023/10/26 21:26:34;;;;;;;7.20;6.70;;;;;;;;;;12699594;23;20344;-68
2023/10/26 21:31:31;;;;;;;6.97;6.35;;;;;;;;;;12699241;23;20024;-68
2023/10/26 21:36:27;;;;;;;7.40;6.70;;;;;;;;;;12698790;23;20028;-68
2023/10/26 21:41:23;;;;;;;8.40;7.45;;;;;;;;;;12693620;22;20366;-68
2023/10/26 21:46:20;;;;;;;7.68;7.07;;;;;;;;;;12693136;22;20028;-68
2023/10/26 21:51:16;;;;;;;7.32;6.60;;;;;;;;;;12698344;23;20024;-68
2023/10/26 21:56:13;;;;;;;7.03;6.40;;;;;;;;;;12698573;23;20711;-68
2023/10/26 22:01:09;;;;;;;6.90;6.40;;;;;;;;;;12698700;23;20036;-67
2023/10/26 22:06:05;;;;;;;6.72;6.20;;;;;;;;;;12698665;23;20020;-68
2023/10/26 22:11:02;;;;;;;7.97;6.55;;;;;;;;;;12698733;23;20024;-67
2023/10/26 22:15:59;;;;;;;9.75;6.50;;;;;;;;;;12696923;23;20488;-67
2023/10/26 22:20:59;;;;;;;7.35;6.85;;;;;;;;;;12697544;23;20111;-67
2023/10/26 22:25:57;;;;;;;7.30;6.60;;;;;;;;;;12698403;23;20020;-70
2023/10/26 22:30:53;;;;;;;7.10;6.50;;;;;;;;;;12697883;23;20156;-70
2023/10/26 22:35:50;;;;;;;7.43;6.85;;;;;;;;;;12698304;23;20106;-69
2023/10/26 22:40:46;;;;;;;7.22;6.63;;;;;;;;;;12698072;23;20024;-70
2023/10/26 22:45:42;;;;;;;7.50;6.90;;;;;;;;;;12697539;23;20078;-67
2023/10/26 22:50:39;;;;;;;6.95;6.35;;;;;;;;;;12698201;23;20070;-68
2023/10/26 22:55:35;;;;;;;6.53;5.95;;;;;;;;;;12697354;23;20062;-67
2023/10/26 23:00:33;;;;;;;10.75;6.45;;;;;;;;;;12691937;22;20024;-68
2023/10/26 23:05:29;;;;;;;6.95;6.35;;;;;;;;;;12670675;23;20058;-67
2023/10/26 23:10:25;;;;;;;8.10;6.78;;;;;;;;;;12696651;23;20051;-68
2023/10/26 23:15:22;;;;;;;6.65;6.15;;;;;;;;;;12696721;23;20464;-68
2023/10/26 23:20:18;;;;;;;6.60;6.10;;;;;;;;;;12698214;23;20028;-68
2023/10/26 23:25:14;;;;;;;6.78;6.15;;;;;;;;;;12697313;23;20398;-70
2023/10/26 23:30:11;;;;;;;7.07;6.53;;;;;;;;;;12697524;23;20032;-69
2023/10/26 23:35:07;;;;;;;6.63;6.13;;;;;;;;;;12696892;23;20055;-70
2023/10/26 23:40:04;;;;;;;14.75;6.18;;;;;;;;;;12696102;23;20323;-70
2023/10/26 23:45:00;;;;;;;7.20;6.50;;;;;;;;;;12691271;22;20023;-68
2023/10/26 23:49:57;;;;;;;7.03;6.43;;;;;;;;;;12697553;23;20488;-68
2023/10/26 23:54:53;;;;;;;6.63;6.13;;;;;;;;;;12695414;23;20075;-69
2023/10/26 23:59:50;;;;;;;10.10;6.75;;;;;;;;;;12697853;23;20481;-69
